Kyokusho Maru — JL6605 — position and weather

sailwx.info

Track history (hours):
 
Tides and Currents Weather Stations Pressure Air Temp Water Temp Dewpoint Dewpoint Depression Visibility Wind Speed Wind Dir Waves Ship Positions

Kyokusho Maru

Last reported at 2014-Nov-12 05:08 UTC. Time now 2014-Nov-23 06:04 UTC.
Position N 34°14' E 132°14'.
Warning: this ship's position is 11 days out of date.

Length 77 m; draft 3.5 m.

Type: Tanker. MMSI: 431501667.

Date/timePositionNaut miles runAvg speedWind from/ knotsBaromVisibWave heightAir tempDewpointWater temp
2014-Nov-12 05:08N 34°14' E 132°14'5 0.7
2014-Nov-11 22:18N 34°10' E 132°19'0 0.0
2014-Nov-11 10:32N 34°10' E 132°19'4 0.3
2014-Nov-10 22:27N 34°09' E 132°23'4 4.1
2014-Nov-10 21:33N 34°10' E 132°19'0 0.0
2014-Nov-10 20:15N 34°10' E 132°19'0 0.0
2014-Nov-10 19:33N 34°10' E 132°19'0 0.0
2014-Nov-10 18:33N 34°10' E 132°19'0 0.0
2014-Nov-10 17:24N 34°10' E 132°19'0 0.0
2014-Nov-10 16:33N 34°10' E 132°19'0 0.0
2014-Nov-10 15:18N 34°10' E 132°19'0 0.0
2014-Nov-10 14:30N 34°10' E 132°19'0 0.0
2014-Nov-10 13:27N 34°10' E 132°19'0 0.0
2014-Nov-10 04:21N 34°10' E 132°19'0 0.0
2014-Nov-09 22:16N 34°10' E 132°19'0 0.1
2014-Nov-09 20:32N 34°10' E 132°19'0 0.0
2014-Nov-09 19:20N 34°10' E 132°19'0 0.0
2014-Nov-09 14:29N 34°10' E 132°19'  
2014-Nov-06 05:20N 34°08' E 132°23'4 0.8
2014-Nov-06 00:14N 34°10' E 132°19'5 6.6
2014-Nov-05 23:33N 34°13' E 132°15'  
Track history (hours):
 
Tides and Currents Weather Stations Pressure Air Temp Water Temp Dewpoint Dewpoint Depression Visibility Wind Speed Wind Dir Waves Ship Positions

Kyokusho Maru

Last reported at 2014-Nov-12 05:08 UTC. Time now 2014-Nov-23 06:04 UTC.
Position N 34°14' E 132°14'.
Warning: this ship's position is 11 days out of date.

Length 77 m; draft 3.5 m.

Type: Tanker. MMSI: 431501667.

Date/timePositionNaut miles runAvg speedWind from/ knotsBaromVisibWave heightAir tempDewpointWater temp
2014-Nov-12 05:08N 34°14' E 132°14'5 0.7
2014-Nov-11 22:18N 34°10' E 132°19'0 0.0
2014-Nov-11 10:32N 34°10' E 132°19'4 0.3
2014-Nov-10 22:27N 34°09' E 132°23'4 4.1
2014-Nov-10 21:33N 34°10' E 132°19'0 0.0
2014-Nov-10 20:15N 34°10' E 132°19'0 0.0
2014-Nov-10 19:33N 34°10' E 132°19'0 0.0
2014-Nov-10 18:33N 34°10' E 132°19'0 0.0
2014-Nov-10 17:24N 34°10' E 132°19'0 0.0
2014-Nov-10 16:33N 34°10' E 132°19'0 0.0
2014-Nov-10 15:18N 34°10' E 132°19'0 0.0
2014-Nov-10 14:30N 34°10' E 132°19'0 0.0
2014-Nov-10 13:27N 34°10' E 132°19'0 0.0
2014-Nov-10 04:21N 34°10' E 132°19'0 0.0
2014-Nov-09 22:16N 34°10' E 132°19'0 0.1
2014-Nov-09 20:32N 34°10' E 132°19'0 0.0
2014-Nov-09 19:20N 34°10' E 132°19'0 0.0
2014-Nov-09 14:29N 34°10' E 132°19'  
2014-Nov-06 05:20N 34°08' E 132°23'4 0.8
2014-Nov-06 00:14N 34°10' E 132°19'5 6.6
2014-Nov-05 23:33N 34°13' E 132°15'  

Dump ship's entire track history